createdAt,value
2023-01-19T00:00:20.505Z,15.73
2023-01-19T00:00:52.087Z,13.93
2023-01-19T00:01:24.478Z,16.65
2023-01-19T00:01:56.031Z,19.23
2023-01-19T00:02:27.644Z,17.17
2023-01-19T00:02:59.187Z,18.55
2023-01-19T00:03:30.749Z,16.70
2023-01-19T00:04:02.517Z,14.95
2023-01-19T00:04:34.021Z,15.18
2023-01-19T00:05:06.220Z,14.05
2023-01-19T00:05:37.803Z,16.90
2023-01-19T00:06:10.147Z,15.07
2023-01-19T00:06:41.883Z,19.08
2023-01-19T00:07:13.537Z,15.65
2023-01-19T00:07:45.922Z,19.85
2023-01-19T00:08:17.732Z,14.18
2023-01-19T00:08:52.318Z,17.83
2023-01-19T00:09:23.894Z,16.33
2023-01-19T00:09:55.489Z,15.75
2023-01-19T00:10:27.009Z,19.38
2023-01-19T00:10:58.590Z,20.25
2023-01-19T00:11:30.182Z,19.17
2023-01-19T00:12:01.846Z,18.85
2023-01-19T00:12:33.631Z,19.40
2023-01-19T00:13:05.253Z,24.95
2023-01-19T00:13:36.960Z,22.55
2023-01-19T00:14:08.497Z,18.73
2023-01-19T00:14:40.069Z,22.23
2023-01-19T00:15:12.041Z,22.17
2023-01-19T00:15:43.872Z,18.38
2023-01-19T00:16:19.430Z,20.23
2023-01-19T00:16:51.107Z,20.77
2023-01-19T00:17:22.808Z,21.83
2023-01-19T00:17:54.334Z,20.42
2023-01-19T00:18:25.931Z,17.63
2023-01-19T00:18:57.514Z,25.05
2023-01-19T00:19:29.505Z,21.70
2023-01-19T00:20:01.299Z,21.73
2023-01-19T00:20:32.919Z,23.58
2023-01-19T00:21:04.598Z,17.27
2023-01-19T00:21:36.258Z,22.10
2023-01-19T00:22:07.813Z,24.05
2023-01-19T00:22:39.353Z,25.35
2023-01-19T00:23:10.928Z,22.10
2023-01-19T00:23:43.854Z,19.13
2023-01-19T00:24:15.488Z,19.33
2023-01-19T00:24:47.267Z,24.33
2023-01-19T00:25:18.812Z,21.63
2023-01-19T00:25:51.311Z,18.30
2023-01-19T00:26:22.828Z,19.33
2023-01-19T00:26:54.389Z,22.08
2023-01-19T00:27:25.940Z,21.35
2023-01-19T00:27:58.875Z,23.63
2023-01-19T00:28:32.153Z,21.58
2023-01-19T00:29:04.757Z,21.20
2023-01-19T00:29:36.445Z,20.30
2023-01-19T00:30:08.610Z,20.80
2023-01-19T00:30:41.357Z,20.65
2023-01-19T00:31:12.981Z,22.83
2023-01-19T00:31:44.755Z,21.20
2023-01-19T00:32:17.884Z,29.23
2023-01-19T00:32:49.768Z,21.17
2023-01-19T00:33:21.375Z,21.08
2023-01-19T00:33:53.165Z,18.70
2023-01-19T00:34:24.813Z,27.05
2023-01-19T00:34:56.918Z,29.23
2023-01-19T00:35:28.579Z,23.08
2023-01-19T00:36:00.122Z,19.52
2023-01-19T00:36:32.294Z,20.60
2023-01-19T00:37:04.376Z,19.83
2023-01-19T00:37:35.921Z,19.58
2023-01-19T00:38:07.484Z,23.70
2023-01-19T00:38:39.093Z,23.52
2023-01-19T00:39:10.862Z,23.30
2023-01-19T00:39:43.527Z,21.58
2023-01-19T00:40:15.302Z,20.83
2023-01-19T00:40:47.844Z,25.60
2023-01-19T00:41:39.836Z,25.35
2023-01-19T00:42:31.020Z,20.73
2023-01-19T00:43:04.110Z,18.40
2023-01-19T00:43:35.632Z,19.45
2023-01-19T00:44:07.348Z,25.05
2023-01-19T00:44:38.929Z,22.33
2023-01-19T00:45:13.021Z,20.92
2023-01-19T00:45:45.751Z,23.00
2023-01-19T00:46:17.297Z,20.63
2023-01-19T00:46:48.837Z,28.13
2023-01-19T00:47:20.370Z,20.63
2023-01-19T00:47:57.184Z,22.40
2023-01-19T00:48:29.561Z,22.25
2023-01-19T00:49:01.239Z,24.35
2023-01-19T00:49:32.801Z,23.48
2023-01-19T00:50:04.818Z,22.45
2023-01-19T00:50:36.419Z,20.77
2023-01-19T00:51:08.019Z,28.30
2023-01-19T00:51:39.610Z,21.02
2023-01-19T00:52:11.438Z,21.75
2023-01-19T00:52:44.386Z,19.73
2023-01-19T00:53:15.981Z,20.35
2023-01-19T00:53:47.621Z,18.50
2023-01-19T00:54:19.317Z,23.65
2023-01-19T00:54:50.927Z,26.13
2023-01-19T00:55:23.326Z,20.88
2023-01-19T00:55:55.097Z,20.95
2023-01-19T00:56:27.195Z,23.27
2023-01-19T00:56:58.775Z,22.48
2023-01-19T00:57:30.319Z,21.90
2023-01-19T00:58:03.112Z,20.00
2023-01-19T00:58:35.808Z,24.13
2023-01-19T00:59:07.555Z,23.55
2023-01-19T00:59:39.156Z,20.52
2023-01-19T01:00:16.242Z,22.40
2023-01-19T01:00:47.930Z,23.10
2023-01-19T01:01:19.553Z,22.27
2023-01-19T01:01:51.366Z,20.60
2023-01-19T01:02:23.284Z,23.27
2023-01-19T01:02:55.152Z,21.60
2023-01-19T01:03:28.083Z,23.23
2023-01-19T01:04:02.823Z,26.98
2023-01-19T01:04:34.477Z,27.45
2023-01-19T01:05:06.836Z,25.45
2023-01-19T01:05:41.261Z,25.52
2023-01-19T01:06:12.770Z,24.00
2023-01-19T01:06:44.376Z,24.25
2023-01-19T01:07:15.914Z,24.52
2023-01-19T01:07:49.606Z,25.92
2023-01-19T01:08:21.224Z,22.92
2023-01-19T01:08:52.863Z,28.35
2023-01-19T01:09:24.616Z,22.00
2023-01-19T01:09:57.438Z,24.90
2023-01-19T01:10:29.720Z,23.33
2023-01-19T01:11:01.421Z,25.13
2023-01-19T01:11:32.942Z,25.20
2023-01-19T01:12:04.765Z,25.27
2023-01-19T01:12:38.148Z,25.63
2023-01-19T01:13:21.229Z,21.00
2023-01-19T01:13:53.308Z,24.00
2023-01-19T01:14:25.129Z,24.45
2023-01-19T01:14:56.715Z,21.45
2023-01-19T01:15:29.607Z,23.35
2023-01-19T01:16:01.198Z,24.00
2023-01-19T01:16:32.835Z,26.85
2023-01-19T01:17:04.405Z,29.08
2023-01-19T01:17:36.135Z,25.30
2023-01-19T01:18:07.752Z,25.17
2023-01-19T01:18:39.330Z,26.13
2023-01-19T01:19:11.623Z,27.60
2023-01-19T01:19:43.183Z,30.77
2023-01-19T01:20:22.962Z,21.45
2023-01-19T01:21:04.513Z,23.38
2023-01-19T01:21:37.296Z,24.33
2023-01-19T01:22:09.908Z,21.38
2023-01-19T01:22:45.217Z,21.00
2023-01-19T01:23:16.835Z,28.27
2023-01-19T01:23:48.352Z,25.92
2023-01-19T01:24:20.794Z,21.15
2023-01-19T01:24:55.135Z,23.25
2023-01-19T01:25:28.028Z,23.45
2023-01-19T01:25:59.612Z,22.88
2023-01-19T01:26:31.177Z,22.75
2023-01-19T01:27:02.771Z,25.50
2023-01-19T01:27:34.557Z,22.70
2023-01-19T01:28:08.696Z,24.80
2023-01-19T01:28:40.263Z,26.25
2023-01-19T01:29:11.843Z,24.92
2023-01-19T01:29:46.476Z,26.08
2023-01-19T01:30:18.926Z,26.30
2023-01-19T01:30:55.569Z,27.67
2023-01-19T01:31:27.424Z,24.20
2023-01-19T01:31:59.205Z,25.45
2023-01-19T01:32:30.781Z,25.13
2023-01-19T01:33:02.725Z,22.23
2023-01-19T01:33:41.143Z,23.52
2023-01-19T01:34:13.570Z,21.38
2023-01-19T01:34:45.150Z,29.10
2023-01-19T01:35:16.808Z,22.55
2023-01-19T01:35:52.101Z,23.90
2023-01-19T01:36:24.142Z,22.08
2023-01-19T01:36:55.897Z,25.13
2023-01-19T01:37:29.052Z,26.73
2023-01-19T01:38:01.134Z,28.55
2023-01-19T01:38:32.676Z,21.38
2023-01-19T01:39:04.871Z,25.02
2023-01-19T01:39:37.051Z,27.17
2023-01-19T01:40:12.245Z,30.75
2023-01-19T01:40:46.226Z,26.02
2023-01-19T01:41:17.757Z,26.08
2023-01-19T01:41:49.481Z,23.80
2023-01-19T01:42:28.153Z,25.48
2023-01-19T01:42:59.986Z,21.88
2023-01-19T01:43:49.195Z,23.70
2023-01-19T01:44:50.038Z,25.77
2023-01-19T01:45:41.011Z,22.05
2023-01-19T01:46:15.432Z,26.83
2023-01-19T01:46:47.274Z,25.73
2023-01-19T01:47:28.988Z,22.50
2023-01-19T01:48:16.011Z,26.23
2023-01-19T01:49:08.671Z,27.83
2023-01-19T01:49:40.264Z,27.10
2023-01-19T01:50:18.156Z,26.08
2023-01-19T01:51:19.343Z,28.08
2023-01-19T01:51:53.385Z,25.15
2023-01-19T01:52:26.787Z,24.50
2023-01-19T01:53:07.589Z,22.35
2023-01-19T01:53:40.065Z,25.13
2023-01-19T01:54:25.099Z,27.90
2023-01-19T01:54:58.119Z,23.63
2023-01-19T01:55:31.552Z,26.08
2023-01-19T01:56:05.884Z,26.75
2023-01-19T01:56:43.585Z,31.20
2023-01-19T01:57:15.413Z,27.17
2023-01-19T01:57:52.048Z,26.05
2023-01-19T01:58:23.678Z,26.60
2023-01-19T01:58:55.318Z,26.77
2023-01-19T01:59:34.767Z,24.08
2023-01-19T02:00:07.023Z,26.95
2023-01-19T02:00:58.645Z,25.95
2023-01-19T02:01:48.926Z,22.13
2023-01-19T02:02:44.754Z,24.73
2023-01-19T02:03:16.702Z,26.63
2023-01-19T02:03:48.355Z,27.05
2023-01-19T02:04:20.000Z,24.58
2023-01-19T02:04:56.870Z,24.48
2023-01-19T02:05:33.680Z,21.40
2023-01-19T02:06:07.277Z,24.88
2023-01-19T02:06:57.774Z,25.80
2023-01-19T02:08:03.624Z,23.67
2023-01-19T02:09:08.996Z,29.25
2023-01-19T02:09:59.545Z,21.52
2023-01-19T02:10:50.525Z,20.48
2023-01-19T02:11:41.411Z,19.90
2023-01-19T02:12:31.642Z,22.02
2023-01-19T02:13:21.799Z,21.48
2023-01-19T02:13:53.537Z,24.23
2023-01-19T02:14:25.053Z,24.10
2023-01-19T02:14:56.709Z,17.63
2023-01-19T02:15:28.227Z,20.85
2023-01-19T02:16:03.498Z,16.75
2023-01-19T02:16:36.684Z,18.80
2023-01-19T02:17:08.227Z,20.48
2023-01-19T02:17:39.823Z,20.00
2023-01-19T02:18:11.460Z,21.45
2023-01-19T02:18:43.388Z,22.00
2023-01-19T02:19:24.449Z,21.88
2023-01-19T02:19:56.260Z,22.95
2023-01-19T02:20:29.433Z,26.50
2023-01-19T02:21:30.061Z,21.00
2023-01-19T02:22:09.906Z,20.45
2023-01-19T02:22:49.616Z,18.02
2023-01-19T02:23:31.899Z,19.30
2023-01-19T02:24:03.605Z,20.15
2023-01-19T02:24:35.915Z,18.10
2023-01-19T02:25:07.828Z,17.15
2023-01-19T02:25:42.524Z,21.83
2023-01-19T02:26:18.727Z,16.05
2023-01-19T02:26:50.716Z,20.75
2023-01-19T02:27:22.389Z,20.50
2023-01-19T02:27:54.064Z,23.20
2023-01-19T02:28:27.001Z,19.85
2023-01-19T02:29:00.854Z,22.02
2023-01-19T02:29:32.643Z,21.20
2023-01-19T02:30:04.910Z,20.13
2023-01-19T02:30:38.847Z,19.55
2023-01-19T02:31:10.691Z,24.63
2023-01-19T02:31:42.722Z,18.25
2023-01-19T02:32:14.402Z,20.73
2023-01-19T02:32:46.000Z,22.77
2023-01-19T02:33:17.573Z,20.20
2023-01-19T02:33:49.609Z,19.75
2023-01-19T02:34:22.672Z,19.00
2023-01-19T02:34:55.006Z,19.80
2023-01-19T02:35:26.769Z,24.10
2023-01-19T02:35:58.297Z,19.38
2023-01-19T02:36:56.428Z,20.00
2023-01-19T02:37:30.189Z,18.25
2023-01-19T02:38:02.785Z,17.33
2023-01-19T02:38:35.290Z,20.00
2023-01-19T02:39:07.444Z,17.85
2023-01-19T02:39:45.701Z,19.23
2023-01-19T02:40:20.160Z,17.33
2023-01-19T02:40:52.105Z,24.40
2023-01-19T02:41:28.604Z,23.80
2023-01-19T02:42:04.110Z,17.25
2023-01-19T02:42:44.040Z,19.60
2023-01-19T02:43:17.440Z,19.23
2023-01-19T02:43:49.690Z,18.55
2023-01-19T02:44:23.027Z,20.25
2023-01-19T02:44:55.929Z,26.85
2023-01-19T02:45:27.827Z,17.58
2023-01-19T02:45:59.403Z,16.85
2023-01-19T02:46:31.125Z,16.85
2023-01-19T02:47:03.854Z,18.98
2023-01-19T02:47:45.777Z,22.77
2023-01-19T02:48:19.662Z,18.17
2023-01-19T02:48:51.265Z,14.82
2023-01-19T02:49:23.746Z,17.48
2023-01-19T02:49:57.026Z,16.77
2023-01-19T02:50:38.234Z,19.10
2023-01-19T02:51:18.507Z,17.55
2023-01-19T02:51:50.234Z,14.65
2023-01-19T02:52:22.621Z,20.23
2023-01-19T02:53:06.511Z,19.13
2023-01-19T02:53:40.647Z,17.00
2023-01-19T02:55:00.424Z,17.00
2023-01-19T02:55:32.977Z,15.93
2023-01-19T02:56:24.918Z,15.52
2023-01-19T02:57:21.350Z,22.30
2023-01-19T02:58:09.170Z,19.40
2023-01-19T02:58:52.036Z,17.52
2023-01-19T02:59:35.654Z,16.48
2023-01-19T03:00:32.724Z,17.83
2023-01-19T03:01:23.945Z,17.00
2023-01-19T03:02:05.725Z,17.80
2023-01-19T03:02:52.673Z,19.35
2023-01-19T03:03:33.697Z,16.65
2023-01-19T03:05:04.302Z,17.58
2023-01-19T03:05:54.416Z,17.25
2023-01-19T03:06:37.679Z,15.30
2023-01-19T03:07:16.251Z,16.95
2023-01-19T03:08:06.196Z,16.35
2023-01-19T03:08:57.710Z,15.88
2023-01-19T03:10:12.848Z,14.48
2023-01-19T03:11:05.261Z,16.23
2023-01-19T03:11:40.140Z,15.50
2023-01-19T03:12:16.105Z,14.40
2023-01-19T03:13:03.364Z,14.88
2023-01-19T03:13:48.001Z,15.57
2023-01-19T03:14:25.194Z,13.57
2023-01-19T03:15:01.172Z,13.00
2023-01-19T03:15:45.106Z,14.23
2023-01-19T03:16:27.363Z,13.93
2023-01-19T03:17:01.431Z,12.60
2023-01-19T03:17:33.749Z,13.38
2023-01-19T03:18:09.074Z,14.23
2023-01-19T03:18:42.871Z,15.07
2023-01-19T03:19:22.125Z,14.32
2023-01-19T03:19:54.308Z,17.35
2023-01-19T03:20:28.809Z,12.57
2023-01-19T03:21:04.144Z,13.95
2023-01-19T03:21:37.415Z,11.23
2023-01-19T03:22:19.934Z,11.60
2023-01-19T03:23:00.945Z,12.25
2023-01-19T03:23:34.967Z,11.27
2023-01-19T03:24:07.286Z,16.05
2023-01-19T03:24:42.130Z,12.60
2023-01-19T03:25:15.247Z,13.05
2023-01-19T03:25:48.377Z,13.38
2023-01-19T03:26:25.178Z,11.73
2023-01-19T03:27:01.507Z,12.32
2023-01-19T03:27:40.794Z,13.65
2023-01-19T03:28:14.066Z,10.35
2023-01-19T03:28:46.364Z,11.27
2023-01-19T03:29:18.906Z,12.57
2023-01-19T03:29:53.653Z,11.43
2023-01-19T03:30:29.228Z,12.68
2023-01-19T03:31:05.905Z,11.77
2023-01-19T03:31:38.032Z,10.50
2023-01-19T03:32:13.176Z,14.43
2023-01-19T03:32:52.222Z,11.57
2023-01-19T03:33:27.941Z,15.48
2023-01-19T03:34:09.769Z,11.50
2023-01-19T03:34:42.994Z,12.45
2023-01-19T03:35:16.275Z,11.20
2023-01-19T03:35:52.817Z,12.48
2023-01-19T03:36:28.995Z,11.20
2023-01-19T03:37:03.316Z,11.05
2023-01-19T03:37:37.933Z,13.10
2023-01-19T03:38:15.219Z,11.00
2023-01-19T03:38:48.724Z,11.70
2023-01-19T03:39:25.141Z,12.70
2023-01-19T03:39:56.837Z,10.35
2023-01-19T03:40:30.442Z,11.18
2023-01-19T03:41:05.219Z,10.48
2023-01-19T03:41:38.830Z,11.52
2023-01-19T03:42:14.158Z,10.77
2023-01-19T03:42:47.140Z,12.50
2023-01-19T03:43:19.133Z,11.73
2023-01-19T03:43:52.092Z,11.60
2023-01-19T03:44:24.799Z,10.95
2023-01-19T03:44:57.432Z,13.55
2023-01-19T03:45:30.867Z,11.32
2023-01-19T03:46:04.175Z,11.75
2023-01-19T03:46:35.845Z,12.60
2023-01-19T03:47:09.151Z,16.70
2023-01-19T03:47:41.254Z,10.95
2023-01-19T03:48:12.893Z,11.70
2023-01-19T03:48:45.357Z,14.05
2023-01-19T03:49:16.976Z,14.15
2023-01-19T03:49:50.301Z,11.43
2023-01-19T03:50:27.175Z,12.50
2023-01-19T03:51:03.305Z,13.60
2023-01-19T03:51:39.142Z,11.93
2023-01-19T03:52:10.804Z,11.88
2023-01-19T03:52:43.868Z,11.60
2023-01-19T03:53:17.231Z,14.70
2023-01-19T03:53:50.090Z,13.98
2023-01-19T03:54:21.667Z,12.30
2023-01-19T03:54:53.198Z,11.95
2023-01-19T03:55:25.021Z,12.90
2023-01-19T03:55:57.068Z,13.20
2023-01-19T03:56:28.792Z,12.30
2023-01-19T03:57:00.363Z,12.93
2023-01-19T03:57:32.322Z,12.15
2023-01-19T03:58:03.845Z,17.95
2023-01-19T03:58:35.904Z,11.60
2023-01-19T03:59:07.505Z,13.38
2023-01-19T03:59:39.325Z,13.15
2023-01-19T04:00:11.866Z,12.90
2023-01-19T04:00:46.312Z,11.68
2023-01-19T04:01:20.802Z,11.93
2023-01-19T04:01:52.432Z,11.10
2023-01-19T04:02:24.717Z,12.43
2023-01-19T04:02:56.527Z,12.18
2023-01-19T04:03:28.611Z,13.93
2023-01-19T04:04:00.190Z,11.18
2023-01-19T04:04:31.796Z,12.38
2023-01-19T04:05:03.810Z,11.55
2023-01-19T04:05:35.525Z,11.00
2023-01-19T04:06:08.308Z,13.55
2023-01-19T04:06:40.034Z,11.45
2023-01-19T04:07:11.828Z,10.60
2023-01-19T04:07:43.436Z,11.82
2023-01-19T04:08:15.083Z,11.82
2023-01-19T04:08:49.202Z,11.15
2023-01-19T04:09:20.822Z,9.70
2023-01-19T04:09:52.354Z,11.18
2023-01-19T04:10:24.018Z,10.52
2023-01-19T04:10:57.576Z,9.95
2023-01-19T04:11:29.180Z,12.73
2023-01-19T04:12:01.976Z,9.85
2023-01-19T04:12:33.574Z,10.55
2023-01-19T04:13:05.661Z,10.27
2023-01-19T04:13:38.029Z,9.73
2023-01-19T04:14:09.583Z,11.13
2023-01-19T04:14:41.101Z,9.25
2023-01-19T04:15:12.832Z,10.43
2023-01-19T04:15:44.418Z,12.40
2023-01-19T04:16:20.058Z,9.75
2023-01-19T04:16:52.115Z,8.85
2023-01-19T04:17:23.773Z,8.80
2023-01-19T04:17:57.645Z,8.63
2023-01-19T04:18:30.192Z,8.57
2023-01-19T04:19:01.780Z,8.98
2023-01-19T04:19:33.489Z,8.95
2023-01-19T04:20:06.053Z,8.50
2023-01-19T04:20:37.585Z,10.00
2023-01-19T04:21:09.385Z,7.90
2023-01-19T04:21:40.982Z,8.88
2023-01-19T04:22:12.717Z,10.15
2023-01-19T04:22:44.319Z,7.82
2023-01-19T04:23:15.895Z,8.95
2023-01-19T04:23:47.704Z,6.78
2023-01-19T04:24:19.230Z,8.60
2023-01-19T04:24:50.944Z,9.68
2023-01-19T04:25:22.458Z,7.45
2023-01-19T04:26:01.827Z,7.10
2023-01-19T04:26:33.357Z,8.13
2023-01-19T04:27:04.886Z,7.45
2023-01-19T04:27:37.090Z,9.20
2023-01-19T04:28:08.607Z,7.40
2023-01-19T04:28:41.113Z,6.93
2023-01-19T04:29:14.073Z,7.57
2023-01-19T04:29:45.624Z,6.95
2023-01-19T04:30:17.352Z,8.57
2023-01-19T04:30:50.870Z,8.40
2023-01-19T04:31:23.379Z,9.77
2023-01-19T04:31:54.934Z,9.05
2023-01-19T04:32:26.571Z,9.40
2023-01-19T04:32:59.700Z,8.55
2023-01-19T04:33:31.491Z,7.68
2023-01-19T04:34:03.750Z,8.77
2023-01-19T04:34:35.439Z,8.93
2023-01-19T04:35:07.266Z,8.77
2023-01-19T04:35:39.597Z,8.13
2023-01-19T04:36:11.150Z,7.85
2023-01-19T04:36:42.738Z,10.93
2023-01-19T04:37:14.252Z,8.45
2023-01-19T04:37:45.778Z,7.80
2023-01-19T04:38:17.335Z,8.57
2023-01-19T04:38:49.304Z,9.20
2023-01-19T04:39:20.913Z,7.50
2023-01-19T04:39:52.648Z,9.10
2023-01-19T04:40:24.537Z,7.70
2023-01-19T04:40:56.100Z,6.95
2023-01-19T04:41:27.676Z,7.13
2023-01-19T04:42:00.812Z,8.15
2023-01-19T04:42:32.410Z,7.10
2023-01-19T04:43:04.165Z,6.93
2023-01-19T04:43:35.855Z,7.68
2023-01-19T04:44:07.442Z,8.30
2023-01-19T04:44:39.363Z,7.35
2023-01-19T04:45:13.111Z,6.45
2023-01-19T04:45:46.177Z,6.90
2023-01-19T04:46:17.701Z,7.00
2023-01-19T04:46:51.545Z,7.35
2023-01-19T04:47:23.127Z,7.50
2023-01-19T04:47:54.837Z,9.13
2023-01-19T04:48:26.492Z,7.88
2023-01-19T04:48:58.004Z,8.32
2023-01-19T04:49:29.661Z,7.35
2023-01-19T04:50:01.184Z,8.10
2023-01-19T04:50:33.015Z,7.45
2023-01-19T04:51:04.789Z,7.68
2023-01-19T04:51:36.805Z,7.07
2023-01-19T04:52:08.404Z,8.88
2023-01-19T04:52:40.272Z,7.97
2023-01-19T04:53:13.686Z,9.80
2023-01-19T04:53:45.560Z,7.43
2023-01-19T04:54:17.125Z,6.90
2023-01-19T04:54:49.001Z,6.95
2023-01-19T04:55:24.761Z,8.32
2023-01-19T04:55:56.402Z,6.80
2023-01-19T04:56:28.406Z,6.50
2023-01-19T04:57:00.187Z,7.88
2023-01-19T04:57:31.819Z,7.88
2023-01-19T04:58:03.363Z,7.53
2023-01-19T04:58:35.351Z,7.75
2023-01-19T04:59:07.166Z,8.75
2023-01-19T04:59:38.756Z,8.60
2023-01-19T05:00:10.971Z,6.88
2023-01-19T05:00:43.874Z,7.82
2023-01-19T05:01:15.429Z,8.18
2023-01-19T05:01:47.338Z,7.80
2023-01-19T05:02:18.911Z,8.00
2023-01-19T05:02:50.783Z,9.20
2023-01-19T05:03:22.928Z,8.18
2023-01-19T05:03:58.921Z,9.40
2023-01-19T05:04:30.487Z,8.50
2023-01-19T05:05:02.433Z,8.43
2023-01-19T05:05:34.207Z,8.23
2023-01-19T05:06:06.499Z,9.93
2023-01-19T05:06:38.304Z,8.02
2023-01-19T05:07:10.585Z,7.70
2023-01-19T05:07:43.329Z,8.40
2023-01-19T05:08:14.963Z,8.45
2023-01-19T05:08:46.481Z,7.53
2023-01-19T05:09:19.517Z,8.90
2023-01-19T05:09:51.088Z,8.25
2023-01-19T05:10:23.832Z,8.50
2023-01-19T05:10:57.514Z,8.60
2023-01-19T05:11:29.079Z,8.55
2023-01-19T05:12:00.647Z,8.30
2023-01-19T05:12:33.213Z,9.20
2023-01-19T05:13:05.569Z,7.90
2023-01-19T05:13:37.076Z,8.35
2023-01-19T05:14:08.616Z,9.18
2023-01-19T05:14:40.344Z,7.95
2023-01-19T05:15:11.909Z,8.98
2023-01-19T05:15:43.576Z,8.32
2023-01-19T05:16:15.201Z,7.97
2023-01-19T05:16:47.003Z,10.45
2023-01-19T05:17:18.712Z,13.18
2023-01-19T05:17:50.310Z,8.07
2023-01-19T05:18:21.935Z,7.78
2023-01-19T05:18:53.446Z,10.57
2023-01-19T05:19:24.962Z,8.60
2023-01-19T05:19:57.357Z,8.10
2023-01-19T05:20:28.922Z,7.97
2023-01-19T05:21:01.922Z,8.73
2023-01-19T05:21:33.435Z,8.32
2023-01-19T05:22:05.938Z,10.00
2023-01-19T05:22:38.457Z,7.88
2023-01-19T05:23:10.083Z,7.40
2023-01-19T05:23:41.629Z,10.23
2023-01-19T05:24:14.145Z,7.88
2023-01-19T05:24:45.703Z,11.93
2023-01-19T05:25:17.559Z,8.98
2023-01-19T05:25:49.104Z,7.93
2023-01-19T05:26:20.615Z,6.90
2023-01-19T05:26:52.144Z,7.70
2023-01-19T05:27:23.778Z,6.70
2023-01-19T05:27:55.424Z,9.60
2023-01-19T05:28:28.290Z,9.32
2023-01-19T05:28:59.946Z,6.70
2023-01-19T05:29:31.497Z,7.13
2023-01-19T05:30:05.018Z,6.78
2023-01-19T05:30:37.160Z,7.93
2023-01-19T05:31:08.986Z,6.55
2023-01-19T05:31:40.740Z,6.65
2023-01-19T05:32:13.613Z,12.52
2023-01-19T05:32:45.181Z,6.25
2023-01-19T05:33:17.089Z,9.13
2023-01-19T05:33:49.050Z,7.00
2023-01-19T05:34:20.566Z,6.03
2023-01-19T05:34:52.097Z,9.18
2023-01-19T05:35:35.338Z,7.85
2023-01-19T05:36:08.003Z,6.53
2023-01-19T05:36:39.563Z,6.38
2023-01-19T05:37:11.599Z,9.10
2023-01-19T05:37:43.170Z,7.40
2023-01-19T05:38:17.066Z,6.78
2023-01-19T05:38:50.695Z,6.20
2023-01-19T05:39:22.303Z,5.78
2023-01-19T05:39:54.423Z,5.95
2023-01-19T05:40:26.311Z,6.53
2023-01-19T05:40:58.567Z,5.60
2023-01-19T05:41:30.503Z,4.90
2023-01-19T05:42:02.050Z,8.68
2023-01-19T05:42:34.117Z,6.13
2023-01-19T05:43:05.755Z,5.97
2023-01-19T05:43:37.350Z,5.00
2023-01-19T05:44:09.824Z,5.53
2023-01-19T05:44:42.919Z,6.18
2023-01-19T05:45:14.537Z,5.50
2023-01-19T05:45:46.395Z,5.18
2023-01-19T05:46:17.999Z,6.53
2023-01-19T05:46:49.618Z,6.22
2023-01-19T05:47:21.277Z,5.55
2023-01-19T05:47:54.283Z,7.50
2023-01-19T05:48:25.921Z,3.45
2023-01-19T05:48:57.656Z,4.22
2023-01-19T05:49:29.183Z,6.05
2023-01-19T05:50:00.786Z,4.60
2023-01-19T05:50:33.017Z,3.72
2023-01-19T05:51:05.259Z,4.82
2023-01-19T05:51:40.518Z,5.15
2023-01-19T05:52:12.058Z,3.55
2023-01-19T05:52:43.638Z,4.13
2023-01-19T05:53:16.429Z,5.72
2023-01-19T05:53:47.973Z,4.55
2023-01-19T05:54:19.770Z,6.57
2023-01-19T05:54:52.065Z,4.72
2023-01-19T05:55:23.703Z,7.68
2023-01-19T05:56:03.336Z,2.97
2023-01-19T05:56:35.852Z,4.78
2023-01-19T05:57:08.049Z,3.45
2023-01-19T05:57:39.579Z,2.92
2023-01-19T05:58:11.235Z,3.53
2023-01-19T05:58:42.787Z,4.30
2023-01-19T05:59:15.307Z,8.20
2023-01-19T05:59:46.847Z,5.35
2023-01-19T06:00:18.641Z,3.72
2023-01-19T06:00:50.221Z,6.43
2023-01-19T06:01:21.845Z,2.50
2023-01-19T06:01:54.073Z,4.78
2023-01-19T06:02:28.745Z,5.50
2023-01-19T06:03:02.465Z,1.95
2023-01-19T06:03:35.492Z,4.78
2023-01-19T06:04:07.200Z,4.45
2023-01-19T06:04:38.735Z,2.58
2023-01-19T06:05:10.361Z,2.75
2023-01-19T06:05:41.906Z,4.95
2023-01-19T06:06:15.026Z,8.30
2023-01-19T06:06:50.425Z,5.47
2023-01-19T06:07:24.274Z,3.53
2023-01-19T06:07:59.319Z,3.28
2023-01-19T06:08:31.030Z,3.92
2023-01-19T06:09:02.635Z,4.80
2023-01-19T06:09:34.479Z,4.13
2023-01-19T06:10:06.605Z,5.93
2023-01-19T06:10:38.151Z,8.20
2023-01-19T06:11:09.696Z,4.68
2023-01-19T06:11:41.328Z,7.65
2023-01-19T06:12:13.036Z,4.80
2023-01-19T06:12:44.581Z,1.83
2023-01-19T06:13:16.157Z,3.05
2023-01-19T06:13:48.016Z,2.17
2023-01-19T06:14:19.905Z,3.05
2023-01-19T06:14:51.572Z,3.47
2023-01-19T06:15:23.197Z,3.17
2023-01-19T06:16:01.069Z,3.38
2023-01-19T06:16:32.664Z,2.25
2023-01-19T06:17:06.126Z,1.70
2023-01-19T06:17:37.813Z,2.90
2023-01-19T06:18:09.565Z,3.22
2023-01-19T06:18:41.162Z,3.40
2023-01-19T06:19:12.792Z,4.80
2023-01-19T06:19:44.569Z,4.80
2023-01-19T06:20:16.856Z,3.40
2023-01-19T06:20:48.843Z,7.30
2023-01-19T06:21:20.362Z,3.92
2023-01-19T06:21:52.454Z,4.65
2023-01-19T06:22:24.561Z,2.85
2023-01-19T06:22:57.687Z,4.43
2023-01-19T06:23:32.865Z,3.45
2023-01-19T06:24:04.797Z,3.63
2023-01-19T06:24:36.668Z,6.60
2023-01-19T06:25:09.219Z,7.00
2023-01-19T06:25:40.726Z,4.38
2023-01-19T06:26:13.093Z,3.80
2023-01-19T06:26:44.727Z,6.78
2023-01-19T06:27:16.325Z,5.47
2023-01-19T06:27:47.884Z,7.05
2023-01-19T06:28:19.444Z,3.65
2023-01-19T06:28:51.343Z,4.10
2023-01-19T06:29:23.136Z,4.32
2023-01-19T06:29:54.671Z,1.98
2023-01-19T06:30:27.072Z,7.85
2023-01-19T06:30:59.881Z,12.63
2023-01-19T06:31:31.715Z,3.28
2023-01-19T06:32:03.410Z,4.72
2023-01-19T06:32:35.063Z,7.50
2023-01-19T06:33:06.683Z,4.60
2023-01-19T06:33:38.204Z,9.75
2023-01-19T06:34:10.178Z,3.15
2023-01-19T06:34:43.790Z,6.88
2023-01-19T06:35:15.463Z,4.43
2023-01-19T06:35:48.281Z,5.03
2023-01-19T06:36:20.910Z,3.75
2023-01-19T06:36:52.452Z,9.07
2023-01-19T06:37:26.769Z,4.85
2023-01-19T06:37:58.332Z,8.82
2023-01-19T06:38:29.976Z,5.88
2023-01-19T06:39:05.558Z,11.13
2023-01-19T06:39:38.068Z,6.88
2023-01-19T06:40:10.282Z,3.30
2023-01-19T06:40:41.831Z,6.70
2023-01-19T06:41:13.347Z,9.23
2023-01-19T06:41:44.890Z,10.88
2023-01-19T06:42:16.461Z,10.10
2023-01-19T06:42:49.141Z,11.02
2023-01-19T06:43:21.067Z,7.22
2023-01-19T06:43:52.634Z,7.78
2023-01-19T06:44:24.143Z,6.78
2023-01-19T06:44:55.708Z,9.93
2023-01-19T06:45:27.455Z,6.97
2023-01-19T06:46:00.739Z,16.00
2023-01-19T06:46:32.449Z,7.32
2023-01-19T06:47:15.185Z,8.32
2023-01-19T06:47:48.099Z,10.55
2023-01-19T06:48:19.778Z,8.52
2023-01-19T06:48:51.353Z,5.40
2023-01-19T06:49:22.967Z,6.85
2023-01-19T06:49:54.643Z,11.90
2023-01-19T06:50:26.793Z,3.13
2023-01-19T06:50:59.801Z,6.47
2023-01-19T06:51:32.961Z,8.20
2023-01-19T06:52:04.815Z,10.75
2023-01-19T06:52:42.267Z,8.57
2023-01-19T06:53:16.585Z,8.45
2023-01-19T06:53:48.291Z,11.75
2023-01-19T06:54:20.181Z,7.68
2023-01-19T06:54:51.720Z,4.40
2023-01-19T06:55:23.417Z,6.68
2023-01-19T06:56:04.455Z,5.22
2023-01-19T06:56:36.699Z,6.53
2023-01-19T06:57:08.454Z,7.82
2023-01-19T06:57:40.275Z,7.47
2023-01-19T06:58:12.412Z,7.55
2023-01-19T06:58:43.967Z,6.20
2023-01-19T06:59:15.502Z,8.05
2023-01-19T06:59:47.107Z,7.40
2023-01-19T07:00:18.984Z,10.40
2023-01-19T07:00:51.708Z,5.57
2023-01-19T07:01:23.458Z,10.77
2023-01-19T07:01:56.637Z,10.68
2023-01-19T07:02:28.808Z,11.95
2023-01-19T07:03:01.031Z,10.15
2023-01-19T07:03:33.435Z,10.57
2023-01-19T07:04:05.444Z,10.02
2023-01-19T07:04:36.960Z,10.27
2023-01-19T07:05:09.422Z,6.80
2023-01-19T07:05:40.946Z,7.38
2023-01-19T07:06:12.625Z,11.40
2023-01-19T07:06:44.184Z,8.38
2023-01-19T07:07:16.625Z,9.77
2023-01-19T07:07:57.553Z,6.50
2023-01-19T07:09:04.709Z,5.07
2023-01-19T07:09:36.265Z,8.77
2023-01-19T07:10:08.947Z,8.93
2023-01-19T07:11:24.591Z,15.18
2023-01-19T07:11:32.556Z,8.60
2023-01-19T07:12:04.733Z,11.63
2023-01-19T07:12:37.378Z,10.13
2023-01-19T07:13:08.982Z,8.68
2023-01-19T07:13:41.087Z,9.07
2023-01-19T07:14:13.232Z,8.80
2023-01-19T07:14:44.894Z,12.75
2023-01-19T07:15:19.539Z,12.63
2023-01-19T07:15:51.053Z,12.60
2023-01-19T07:16:22.904Z,9.85
2023-01-19T07:16:54.541Z,11.95
2023-01-19T07:17:26.229Z,6.32
2023-01-19T07:17:58.965Z,8.95
2023-01-19T07:18:30.708Z,10.10
2023-01-19T07:19:02.328Z,13.43
2023-01-19T07:19:35.305Z,9.73
2023-01-19T07:20:07.669Z,10.13
2023-01-19T07:20:39.220Z,10.73
2023-01-19T07:21:10.736Z,19.48
2023-01-19T07:21:42.443Z,12.27
2023-01-19T07:22:14.208Z,13.38
2023-01-19T07:22:46.691Z,12.98